sensor_id;sensor_type;location;lat;lon;timestamp;P1;durP1;ratioP1;P2;durP2;ratioP2
42846;SDS011;28495;49.916;14.536;2023-03-26T00:04:25;2.92;;;1.35;;
42846;SDS011;28495;49.916;14.536;2023-03-26T00:09:47;1.70;;;0.50;;
42846;SDS011;28495;49.916;14.536;2023-03-26T00:15:08;0.80;;;0.50;;
42846;SDS011;28495;49.916;14.536;2023-03-26T00:20:30;0.98;;;0.65;;
42846;SDS011;28495;49.916;14.536;2023-03-26T00:25:54;1.40;;;0.63;;
42846;SDS011;28495;49.916;14.536;2023-03-26T00:31:16;1.30;;;0.52;;
42846;SDS011;28495;49.916;14.536;2023-03-26T00:36:37;2.55;;;0.50;;
42846;SDS011;28495;49.916;14.536;2023-03-26T00:41:58;2.15;;;0.50;;
42846;SDS011;28495;49.916;14.536;2023-03-26T00:47:19;1.88;;;0.63;;
42846;SDS011;28495;49.916;14.536;2023-03-26T00:52:41;1.02;;;0.50;;
42846;SDS011;28495;49.916;14.536;2023-03-26T00:58:04;0.85;;;0.50;;
42846;SDS011;28495;49.916;14.536;2023-03-26T01:03:26;2.03;;;0.70;;
42846;SDS011;28495;49.916;14.536;2023-03-26T01:08:53;1.10;;;0.60;;
42846;SDS011;28495;49.916;14.536;2023-03-26T01:14:21;0.98;;;0.60;;
42846;SDS011;28495;49.916;14.536;2023-03-26T01:19:47;0.50;;;0.40;;
42846;SDS011;28495;49.916;14.536;2023-03-26T01:25:34;0.90;;;0.40;;
42846;SDS011;28495;49.916;14.536;2023-03-26T01:36:40;1.77;;;0.57;;
42846;SDS011;28495;49.916;14.536;2023-03-26T01:42:14;2.42;;;0.70;;
42846;SDS011;28495;49.916;14.536;2023-03-26T01:47:41;5.18;;;0.77;;
42846;SDS011;28495;49.916;14.536;2023-03-26T01:53:03;1.45;;;0.30;;
42846;SDS011;28495;49.916;14.536;2023-03-26T01:58:34;2.50;;;0.50;;
42846;SDS011;28495;49.916;14.536;2023-03-26T02:09:31;1.95;;;0.82;;
42846;SDS011;28495;49.916;14.536;2023-03-26T02:14:59;2.20;;;1.23;;
42846;SDS011;28495;49.916;14.536;2023-03-26T02:20:21;1.02;;;0.60;;
42846;SDS011;28495;49.916;14.536;2023-03-26T02:25:42;3.00;;;0.65;;
42846;SDS011;28495;49.916;14.536;2023-03-26T02:31:03;1.00;;;0.55;;
42846;SDS011;28495;49.916;14.536;2023-03-26T02:36:25;2.88;;;0.50;;
42846;SDS011;28495;49.916;14.536;2023-03-26T02:41:53;1.67;;;0.47;;
42846;SDS011;28495;49.916;14.536;2023-03-26T02:47:14;0.93;;;0.40;;
42846;SDS011;28495;49.916;14.536;2023-03-26T02:52:44;0.73;;;0.50;;
42846;SDS011;28495;49.916;14.536;2023-03-26T02:58:09;1.73;;;0.50;;
42846;SDS011;28495;49.916;14.536;2023-03-26T03:03:32;1.42;;;0.70;;
42846;SDS011;28495;49.916;14.536;2023-03-26T03:09:16;0.75;;;0.47;;
42846;SDS011;28495;49.916;14.536;2023-03-26T03:14:57;2.10;;;0.40;;
42846;SDS011;28495;49.916;14.536;2023-03-26T03:20:17;0.60;;;0.50;;
42846;SDS011;28495;49.916;14.536;2023-03-26T03:25:38;1.30;;;0.50;;
42846;SDS011;28495;49.916;14.536;2023-03-26T03:31:01;1.85;;;0.52;;
42846;SDS011;28495;49.916;14.536;2023-03-26T03:36:25;3.13;;;0.65;;
42846;SDS011;28495;49.916;14.536;2023-03-26T03:41:57;0.75;;;0.30;;
42846;SDS011;28495;49.916;14.536;2023-03-26T03:47:18;0.93;;;0.32;;
42846;SDS011;28495;49.916;14.536;2023-03-26T03:52:40;1.30;;;0.80;;
42846;SDS011;28495;49.916;14.536;2023-03-26T03:58:02;4.18;;;0.80;;
42846;SDS011;28495;49.916;14.536;2023-03-26T04:03:23;1.00;;;0.50;;
42846;SDS011;28495;49.916;14.536;2023-03-26T04:08:57;2.97;;;1.50;;
42846;SDS011;28495;49.916;14.536;2023-03-26T04:14:18;1.55;;;0.95;;
42846;SDS011;28495;49.916;14.536;2023-03-26T04:20:09;1.58;;;0.77;;
42846;SDS011;28495;49.916;14.536;2023-03-26T04:25:36;1.98;;;0.80;;
42846;SDS011;28495;49.916;14.536;2023-03-26T04:31:20;0.82;;;0.60;;
42846;SDS011;28495;49.916;14.536;2023-03-26T04:36:50;1.87;;;0.63;;
42846;SDS011;28495;49.916;14.536;2023-03-26T04:42:18;6.88;;;1.02;;
42846;SDS011;28495;49.916;14.536;2023-03-26T04:47:59;0.65;;;0.50;;
42846;SDS011;28495;49.916;14.536;2023-03-26T04:53:21;1.67;;;0.50;;
42846;SDS011;28495;49.916;14.536;2023-03-26T04:59:17;2.72;;;0.57;;
42846;SDS011;28495;49.916;14.536;2023-03-26T05:04:46;0.52;;;0.47;;
42846;SDS011;28495;49.916;14.536;2023-03-26T05:10:11;1.40;;;0.45;;
42846;SDS011;28495;49.916;14.536;2023-03-26T05:16:04;2.97;;;0.50;;
42846;SDS011;28495;49.916;14.536;2023-03-26T05:21:40;1.85;;;0.90;;
42846;SDS011;28495;49.916;14.536;2023-03-26T05:27:02;1.85;;;0.65;;
42846;SDS011;28495;49.916;14.536;2023-03-26T05:32:34;3.65;;;0.77;;
42846;SDS011;28495;49.916;14.536;2023-03-26T05:37:56;2.45;;;0.55;;
42846;SDS011;28495;49.916;14.536;2023-03-26T05:43:18;1.00;;;0.60;;
42846;SDS011;28495;49.916;14.536;2023-03-26T05:48:46;1.23;;;0.55;;
42846;SDS011;28495;49.916;14.536;2023-03-26T05:54:07;0.77;;;0.50;;
42846;SDS011;28495;49.916;14.536;2023-03-26T05:59:47;2.43;;;0.63;;
42846;SDS011;28495;49.916;14.536;2023-03-26T06:05:40;2.03;;;0.60;;
42846;SDS011;28495;49.916;14.536;2023-03-26T06:11:09;1.45;;;0.85;;
42846;SDS011;28495;49.916;14.536;2023-03-26T06:16:32;3.13;;;0.88;;
42846;SDS011;28495;49.916;14.536;2023-03-26T06:22:13;4.65;;;0.63;;
42846;SDS011;28495;49.916;14.536;2023-03-26T06:27:53;3.85;;;0.70;;
42846;SDS011;28495;49.916;14.536;2023-03-26T06:33:45;1.73;;;0.50;;
42846;SDS011;28495;49.916;14.536;2023-03-26T06:39:08;2.28;;;0.93;;
42846;SDS011;28495;49.916;14.536;2023-03-26T06:44:36;5.70;;;0.88;;
42846;SDS011;28495;49.916;14.536;2023-03-26T06:50:15;2.97;;;0.60;;
42846;SDS011;28495;49.916;14.536;2023-03-26T06:55:48;3.67;;;0.60;;
42846;SDS011;28495;49.916;14.536;2023-03-26T07:01:15;3.00;;;0.68;;
42846;SDS011;28495;49.916;14.536;2023-03-26T07:06:54;4.23;;;1.10;;
42846;SDS011;28495;49.916;14.536;2023-03-26T07:12:34;3.63;;;0.98;;
42846;SDS011;28495;49.916;14.536;2023-03-26T07:18:15;3.58;;;1.08;;
42846;SDS011;28495;49.916;14.536;2023-03-26T07:23:38;2.63;;;0.50;;
42846;SDS011;28495;49.916;14.536;2023-03-26T07:29:36;3.47;;;0.80;;
42846;SDS011;28495;49.916;14.536;2023-03-26T07:35:47;2.40;;;0.50;;
42846;SDS011;28495;49.916;14.536;2023-03-26T07:41:42;1.30;;;0.68;;
42846;SDS011;28495;49.916;14.536;2023-03-26T07:47:30;4.32;;;0.70;;
42846;SDS011;28495;49.916;14.536;2023-03-26T07:53:15;4.20;;;1.77;;
42846;SDS011;28495;49.916;14.536;2023-03-26T07:59:19;3.17;;;0.90;;
42846;SDS011;28495;49.916;14.536;2023-03-26T08:28:41;1.60;;;0.77;;
42846;SDS011;28495;49.916;14.536;2023-03-26T08:34:05;3.72;;;0.45;;
42846;SDS011;28495;49.916;14.536;2023-03-26T08:39:30;5.65;;;1.02;;
42846;SDS011;28495;49.916;14.536;2023-03-26T08:51:00;2.85;;;0.57;;
42846;SDS011;28495;49.916;14.536;2023-03-26T08:56:25;2.22;;;0.40;;
42846;SDS011;28495;49.916;14.536;2023-03-26T09:19:23;0.70;;;0.50;;
42846;SDS011;28495;49.916;14.536;2023-03-26T09:37:02;1.98;;;0.60;;
42846;SDS011;28495;49.916;14.536;2023-03-26T09:42:42;1.40;;;0.60;;
42846;SDS011;28495;49.916;14.536;2023-03-26T09:48:31;1.80;;;0.80;;
42846;SDS011;28495;49.916;14.536;2023-03-26T10:28:45;2.55;;;0.85;;
42846;SDS011;28495;49.916;14.536;2023-03-26T10:57:32;4.53;;;0.93;;
42846;SDS011;28495;49.916;14.536;2023-03-26T11:03:02;1.85;;;0.68;;
42846;SDS011;28495;49.916;14.536;2023-03-26T11:08:42;1.30;;;0.73;;
42846;SDS011;28495;49.916;14.536;2023-03-26T11:36:36;3.72;;;1.17;;
42846;SDS011;28495;49.916;14.536;2023-03-26T11:42:07;2.85;;;0.80;;
42846;SDS011;28495;49.916;14.536;2023-03-26T11:47:37;2.33;;;0.70;;
42846;SDS011;28495;49.916;14.536;2023-03-26T11:53:11;4.47;;;0.73;;
42846;SDS011;28495;49.916;14.536;2023-03-26T11:58:39;5.03;;;0.90;;
42846;SDS011;28495;49.916;14.536;2023-03-26T12:04:11;3.03;;;1.00;;
42846;SDS011;28495;49.916;14.536;2023-03-26T12:09:34;2.53;;;0.70;;
42846;SDS011;28495;49.916;14.536;2023-03-26T12:14:54;1.23;;;0.70;;
42846;SDS011;28495;49.916;14.536;2023-03-26T12:25:45;2.63;;;1.13;;
42846;SDS011;28495;49.916;14.536;2023-03-26T12:31:25;4.70;;;0.90;;
42846;SDS011;28495;49.916;14.536;2023-03-26T12:36:52;1.92;;;0.52;;
42846;SDS011;28495;49.916;14.536;2023-03-26T12:48:05;2.38;;;0.90;;
42846;SDS011;28495;49.916;14.536;2023-03-26T13:27:52;2.73;;;1.03;;
42846;SDS011;28495;49.916;14.536;2023-03-26T13:33:19;6.20;;;1.10;;
42846;SDS011;28495;49.916;14.536;2023-03-26T13:39:26;3.10;;;1.15;;
42846;SDS011;28495;49.916;14.536;2023-03-26T13:45:00;2.13;;;0.98;;
42846;SDS011;28495;49.916;14.536;2023-03-26T13:50:29;3.67;;;1.02;;
42846;SDS011;28495;49.916;14.536;2023-03-26T13:55:55;2.85;;;1.13;;
42846;SDS011;28495;49.916;14.536;2023-03-26T14:01:38;1.98;;;1.10;;
42846;SDS011;28495;49.916;14.536;2023-03-26T14:07:21;2.80;;;0.80;;
42846;SDS011;28495;49.916;14.536;2023-03-26T14:12:51;4.10;;;0.95;;
42846;SDS011;28495;49.916;14.536;2023-03-26T14:18:34;3.03;;;1.33;;
42846;SDS011;28495;49.916;14.536;2023-03-26T14:41:22;1.47;;;0.93;;
42846;SDS011;28495;49.916;14.536;2023-03-26T15:09:26;2.72;;;1.30;;
42846;SDS011;28495;49.916;14.536;2023-03-26T15:43:27;3.13;;;1.40;;
42846;SDS011;28495;49.916;14.536;2023-03-26T15:49:37;4.20;;;1.25;;
42846;SDS011;28495;49.916;14.536;2023-03-26T15:55:04;2.58;;;1.40;;
42846;SDS011;28495;49.916;14.536;2023-03-26T16:00:47;4.68;;;1.30;;
42846;SDS011;28495;49.916;14.536;2023-03-26T16:29:13;7.63;;;1.48;;
42846;SDS011;28495;49.916;14.536;2023-03-26T16:34:51;1.20;;;1.05;;
42846;SDS011;28495;49.916;14.536;2023-03-26T16:45:49;4.20;;;1.48;;
42846;SDS011;28495;49.916;14.536;2023-03-26T16:51:23;4.87;;;1.90;;
42846;SDS011;28495;49.916;14.536;2023-03-26T16:57:17;4.38;;;2.53;;
42846;SDS011;28495;49.916;14.536;2023-03-26T17:14:02;2.55;;;1.70;;
42846;SDS011;28495;49.916;14.536;2023-03-26T17:19:34;3.42;;;1.17;;
42846;SDS011;28495;49.916;14.536;2023-03-26T17:25:10;4.25;;;1.42;;
42846;SDS011;28495;49.916;14.536;2023-03-26T17:31:10;4.28;;;1.33;;
42846;SDS011;28495;49.916;14.536;2023-03-26T17:36:43;3.95;;;2.08;;
42846;SDS011;28495;49.916;14.536;2023-03-26T17:53:34;5.90;;;1.52;;
42846;SDS011;28495;49.916;14.536;2023-03-26T17:58:57;5.50;;;1.77;;
42846;SDS011;28495;49.916;14.536;2023-03-26T18:04:35;3.97;;;2.55;;
42846;SDS011;28495;49.916;14.536;2023-03-26T18:26:49;4.47;;;2.67;;
42846;SDS011;28495;49.916;14.536;2023-03-26T18:32:18;5.38;;;3.42;;
42846;SDS011;28495;49.916;14.536;2023-03-26T18:37:41;6.00;;;2.65;;
42846;SDS011;28495;49.916;14.536;2023-03-26T18:43:05;6.88;;;2.97;;
42846;SDS011;28495;49.916;14.536;2023-03-26T18:48:51;5.80;;;3.13;;
42846;SDS011;28495;49.916;14.536;2023-03-26T18:54:15;4.10;;;2.72;;
42846;SDS011;28495;49.916;14.536;2023-03-26T18:59:39;5.70;;;3.30;;
42846;SDS011;28495;49.916;14.536;2023-03-26T19:05:04;4.75;;;2.22;;
42846;SDS011;28495;49.916;14.536;2023-03-26T19:10:27;4.22;;;2.55;;
42846;SDS011;28495;49.916;14.536;2023-03-26T19:15:49;4.30;;;2.30;;
42846;SDS011;28495;49.916;14.536;2023-03-26T19:21:11;4.57;;;2.20;;
42846;SDS011;28495;49.916;14.536;2023-03-26T19:26:34;5.53;;;2.05;;
42846;SDS011;28495;49.916;14.536;2023-03-26T19:32:14;4.28;;;1.98;;
42846;SDS011;28495;49.916;14.536;2023-03-26T19:37:47;5.32;;;2.80;;
42846;SDS011;28495;49.916;14.536;2023-03-26T19:43:15;7.80;;;5.55;;
42846;SDS011;28495;49.916;14.536;2023-03-26T19:48:36;5.13;;;3.58;;
42846;SDS011;28495;49.916;14.536;2023-03-26T19:54:13;6.07;;;3.13;;
42846;SDS011;28495;49.916;14.536;2023-03-26T19:59:35;6.50;;;2.70;;
42846;SDS011;28495;49.916;14.536;2023-03-26T20:04:56;4.88;;;2.70;;
42846;SDS011;28495;49.916;14.536;2023-03-26T20:10:17;4.80;;;2.30;;
42846;SDS011;28495;49.916;14.536;2023-03-26T20:15:38;3.17;;;2.40;;
42846;SDS011;28495;49.916;14.536;2023-03-26T20:21:00;5.95;;;3.63;;
42846;SDS011;28495;49.916;14.536;2023-03-26T20:26:22;7.72;;;4.80;;
42846;SDS011;28495;49.916;14.536;2023-03-26T20:31:43;9.35;;;3.95;;
42846;SDS011;28495;49.916;14.536;2023-03-26T20:37:05;4.82;;;3.15;;
42846;SDS011;28495;49.916;14.536;2023-03-26T20:42:26;5.47;;;3.15;;
42846;SDS011;28495;49.916;14.536;2023-03-26T20:47:47;11.70;;;7.40;;
42846;SDS011;28495;49.916;14.536;2023-03-26T20:53:13;15.65;;;7.72;;
42846;SDS011;28495;49.916;14.536;2023-03-26T20:58:35;38.63;;;20.02;;
42846;SDS011;28495;49.916;14.536;2023-03-26T21:03:58;16.25;;;9.95;;
42846;SDS011;28495;49.916;14.536;2023-03-26T21:09:19;19.83;;;12.55;;
42846;SDS011;28495;49.916;14.536;2023-03-26T21:14:44;23.77;;;14.70;;
42846;SDS011;28495;49.916;14.536;2023-03-26T21:20:06;21.40;;;13.95;;
42846;SDS011;28495;49.916;14.536;2023-03-26T21:25:40;20.38;;;13.27;;
42846;SDS011;28495;49.916;14.536;2023-03-26T21:36:39;24.15;;;12.90;;
42846;SDS011;28495;49.916;14.536;2023-03-26T21:42:01;20.33;;;11.93;;
42846;SDS011;28495;49.916;14.536;2023-03-26T21:47:25;19.35;;;13.00;;
42846;SDS011;28495;49.916;14.536;2023-03-26T21:52:46;16.42;;;9.73;;
42846;SDS011;28495;49.916;14.536;2023-03-26T21:58:27;7.68;;;5.00;;
42846;SDS011;28495;49.916;14.536;2023-03-26T22:09:54;5.25;;;3.42;;
42846;SDS011;28495;49.916;14.536;2023-03-26T22:15:15;7.10;;;2.92;;
42846;SDS011;28495;49.916;14.536;2023-03-26T22:20:38;5.50;;;2.85;;
42846;SDS011;28495;49.916;14.536;2023-03-26T22:25:58;4.75;;;2.80;;
42846;SDS011;28495;49.916;14.536;2023-03-26T22:31:19;3.65;;;2.50;;
42846;SDS011;28495;49.916;14.536;2023-03-26T22:36:40;4.45;;;2.70;;
42846;SDS011;28495;49.916;14.536;2023-03-26T22:42:01;5.18;;;2.55;;
42846;SDS011;28495;49.916;14.536;2023-03-26T22:47:23;3.17;;;2.25;;
42846;SDS011;28495;49.916;14.536;2023-03-26T22:52:44;6.57;;;3.22;;
42846;SDS011;28495;49.916;14.536;2023-03-26T22:58:05;3.97;;;2.40;;
42846;SDS011;28495;49.916;14.536;2023-03-26T23:03:26;4.07;;;2.25;;
42846;SDS011;28495;49.916;14.536;2023-03-26T23:08:54;4.18;;;2.63;;
42846;SDS011;28495;49.916;14.536;2023-03-26T23:14:16;4.05;;;2.28;;
42846;SDS011;28495;49.916;14.536;2023-03-26T23:19:38;10.52;;;5.93;;
42846;SDS011;28495;49.916;14.536;2023-03-26T23:24:59;7.60;;;4.75;;
42846;SDS011;28495;49.916;14.536;2023-03-26T23:30:20;9.70;;;5.35;;
42846;SDS011;28495;49.916;14.536;2023-03-26T23:35:40;9.85;;;5.63;;
42846;SDS011;28495;49.916;14.536;2023-03-26T23:41:03;4.75;;;3.35;;
42846;SDS011;28495;49.916;14.536;2023-03-26T23:46:26;6.68;;;4.28;;
42846;SDS011;28495;49.916;14.536;2023-03-26T23:51:54;9.60;;;5.15;;
42846;SDS011;28495;49.916;14.536;2023-03-26T23:57:14;7.40;;;4.30;;
